sensor_id;sensor_type;location;lat;lon;timestamp;temperature;humidity
1055;DHT22;516;51.482;7.120;2023-02-11T00:02:57;6.70;99.90
1055;DHT22;516;51.482;7.120;2023-02-11T00:08:45;6.70;99.90
1055;DHT22;516;51.482;7.120;2023-02-11T00:14:33;6.70;99.90
1055;DHT22;516;51.482;7.120;2023-02-11T00:20:24;6.70;99.90
1055;DHT22;516;51.482;7.120;2023-02-11T00:26:23;6.60;99.90
1055;DHT22;516;51.482;7.120;2023-02-11T00:32:11;6.70;99.90
1055;DHT22;516;51.482;7.120;2023-02-11T00:41:46;6.70;99.90
1055;DHT22;516;51.482;7.120;2023-02-11T00:47:34;6.80;99.90
1055;DHT22;516;51.482;7.120;2023-02-11T00:53:22;6.70;99.90
1055;DHT22;516;51.482;7.120;2023-02-11T00:59:10;6.70;99.90
1055;DHT22;516;51.482;7.120;2023-02-11T01:05:00;6.80;99.90
1055;DHT22;516;51.482;7.120;2023-02-11T01:11:03;6.80;99.90
1055;DHT22;516;51.482;7.120;2023-02-11T01:17:09;6.80;99.90
1055;DHT22;516;51.482;7.120;2023-02-11T01:22:57;6.80;99.90
1055;DHT22;516;51.482;7.120;2023-02-11T01:28:45;6.80;99.90
1055;DHT22;516;51.482;7.120;2023-02-11T01:34:33;6.80;99.90
1055;DHT22;516;51.482;7.120;2023-02-11T01:37:15;6.70;99.90
1055;DHT22;516;51.482;7.120;2023-02-11T01:39:40;6.80;99.90
1055;DHT22;516;51.482;7.120;2023-02-11T01:52:31;6.80;99.90
1055;DHT22;516;51.482;7.120;2023-02-11T01:58:41;6.80;99.90
1055;DHT22;516;51.482;7.120;2023-02-11T02:04:35;6.80;99.90
1055;DHT22;516;51.482;7.120;2023-02-11T02:10:26;6.70;99.90
1055;DHT22;516;51.482;7.120;2023-02-11T02:16:17;6.70;99.90
1055;DHT22;516;51.482;7.120;2023-02-11T02:22:32;6.60;99.90
1055;DHT22;516;51.482;7.120;2023-02-11T02:44:49;6.50;99.90
1055;DHT22;516;51.482;7.120;2023-02-11T02:50:37;6.50;99.90
1055;DHT22;516;51.482;7.120;2023-02-11T03:02:34;6.60;99.90
1055;DHT22;516;51.482;7.120;2023-02-11T03:09:15;6.50;99.90
1055;DHT22;516;51.482;7.120;2023-02-11T03:24:59;6.40;99.90
1055;DHT22;516;51.482;7.120;2023-02-11T03:37:29;6.40;99.90
1055;DHT22;516;51.482;7.120;2023-02-11T03:46:43;6.30;99.90
1055;DHT22;516;51.482;7.120;2023-02-11T03:52:34;6.30;99.90
1055;DHT22;516;51.482;7.120;2023-02-11T03:58:23;6.20;99.90
1055;DHT22;516;51.482;7.120;2023-02-11T04:04:11;6.00;99.90
1055;DHT22;516;51.482;7.120;2023-02-11T04:09:59;5.80;99.90
1055;DHT22;516;51.482;7.120;2023-02-11T04:15:46;5.80;99.90
1055;DHT22;516;51.482;7.120;2023-02-11T04:21:34;5.70;99.90
1055;DHT22;516;51.482;7.120;2023-02-11T04:27:22;5.60;99.90
1055;DHT22;516;51.482;7.120;2023-02-11T04:33:10;5.70;99.90
1055;DHT22;516;51.482;7.120;2023-02-11T04:38:58;5.70;99.90
1055;DHT22;516;51.482;7.120;2023-02-11T04:42:02;5.70;99.90
1055;DHT22;516;51.482;7.120;2023-02-11T04:44:28;5.60;99.90
1055;DHT22;516;51.482;7.120;2023-02-11T04:50:16;5.70;99.90
1055;DHT22;516;51.482;7.120;2023-02-11T04:56:03;5.70;99.90
1055;DHT22;516;51.482;7.120;2023-02-11T05:01:51;5.70;99.90
1055;DHT22;516;51.482;7.120;2023-02-11T05:07:39;5.70;99.90
1055;DHT22;516;51.482;7.120;2023-02-11T05:13:28;5.70;99.90
1055;DHT22;516;51.482;7.120;2023-02-11T05:19:16;5.70;99.90
1055;DHT22;516;51.482;7.120;2023-02-11T05:25:04;5.70;99.90
1055;DHT22;516;51.482;7.120;2023-02-11T05:30:52;5.70;99.90
1055;DHT22;516;51.482;7.120;2023-02-11T05:36:39;5.70;99.90
1055;DHT22;516;51.482;7.120;2023-02-11T05:52:23;5.90;99.90
1055;DHT22;516;51.482;7.120;2023-02-11T05:58:11;5.90;99.90
1055;DHT22;516;51.482;7.120;2023-02-11T06:03:59;5.90;99.90
1055;DHT22;516;51.482;7.120;2023-02-11T06:09:47;5.90;99.90
1055;DHT22;516;51.482;7.120;2023-02-11T06:15:34;5.90;99.90
1055;DHT22;516;51.482;7.120;2023-02-11T06:21:22;5.90;99.90
1055;DHT22;516;51.482;7.120;2023-02-11T06:27:10;6.00;99.90
1055;DHT22;516;51.482;7.120;2023-02-11T06:32:58;5.90;99.90
1055;DHT22;516;51.482;7.120;2023-02-11T06:38:46;5.90;99.90
1055;DHT22;516;51.482;7.120;2023-02-11T06:44:29;6.00;99.90
1055;DHT22;516;51.482;7.120;2023-02-11T06:50:17;6.00;99.90
1055;DHT22;516;51.482;7.120;2023-02-11T06:56:08;6.00;99.90
1055;DHT22;516;51.482;7.120;2023-02-11T07:01:56;6.00;99.90
1055;DHT22;516;51.482;7.120;2023-02-11T07:07:43;6.10;99.90
1055;DHT22;516;51.482;7.120;2023-02-11T07:13:31;6.10;99.90
1055;DHT22;516;51.482;7.120;2023-02-11T07:19:18;6.10;99.90
1055;DHT22;516;51.482;7.120;2023-02-11T07:25:06;6.10;99.90
1055;DHT22;516;51.482;7.120;2023-02-11T07:30:54;6.10;99.90
1055;DHT22;516;51.482;7.120;2023-02-11T07:36:42;6.10;99.90
1055;DHT22;516;51.482;7.120;2023-02-11T07:52:29;6.10;99.90
1055;DHT22;516;51.482;7.120;2023-02-11T07:58:17;6.20;99.90
1055;DHT22;516;51.482;7.120;2023-02-11T08:04:05;6.20;99.90
1055;DHT22;516;51.482;7.120;2023-02-11T08:09:53;6.20;99.90
1055;DHT22;516;51.482;7.120;2023-02-11T08:15:42;6.30;99.90
1055;DHT22;516;51.482;7.120;2023-02-11T08:21:29;6.30;99.90
1055;DHT22;516;51.482;7.120;2023-02-11T08:27:17;6.40;99.90
1055;DHT22;516;51.482;7.120;2023-02-11T08:33:05;6.40;99.90
1055;DHT22;516;51.482;7.120;2023-02-11T08:38:54;6.40;99.90
1055;DHT22;516;51.482;7.120;2023-02-11T08:48:07;6.50;99.90
1055;DHT22;516;51.482;7.120;2023-02-11T08:53:55;6.60;99.90
1055;DHT22;516;51.482;7.120;2023-02-11T08:59:43;6.70;99.90
1055;DHT22;516;51.482;7.120;2023-02-11T09:05:31;6.80;99.90
1055;DHT22;516;51.482;7.120;2023-02-11T09:11:21;6.80;99.90
1055;DHT22;516;51.482;7.120;2023-02-11T09:17:11;6.90;99.90
1055;DHT22;516;51.482;7.120;2023-02-11T09:22:59;7.00;99.90
1055;DHT22;516;51.482;7.120;2023-02-11T09:28:47;7.00;99.90
1055;DHT22;516;51.482;7.120;2023-02-11T09:34:35;7.10;99.90
1055;DHT22;516;51.482;7.120;2023-02-11T09:40:23;7.10;99.90
1055;DHT22;516;51.482;7.120;2023-02-11T09:46:01;7.20;99.90
1055;DHT22;516;51.482;7.120;2023-02-11T09:52:04;7.20;99.90
1055;DHT22;516;51.482;7.120;2023-02-11T10:10:59;7.40;99.90
1055;DHT22;516;51.482;7.120;2023-02-11T10:17:01;7.30;99.90
1055;DHT22;516;51.482;7.120;2023-02-11T10:39:50;7.70;99.90
1055;DHT22;516;51.482;7.120;2023-02-11T10:48:58;7.70;99.90
1055;DHT22;516;51.482;7.120;2023-02-11T10:55:03;7.70;99.90
1055;DHT22;516;51.482;7.120;2023-02-11T11:00:54;7.80;99.90
1055;DHT22;516;51.482;7.120;2023-02-11T11:06:41;7.60;99.90
1055;DHT22;516;51.482;7.120;2023-02-11T11:24:54;7.90;99.90
1055;DHT22;516;51.482;7.120;2023-02-11T11:30:44;7.90;99.90
1055;DHT22;516;51.482;7.120;2023-02-11T11:36:37;7.90;99.90
1055;DHT22;516;51.482;7.120;2023-02-11T11:42:29;8.00;99.90
1055;DHT22;516;51.482;7.120;2023-02-11T11:51:41;8.00;99.90
1055;DHT22;516;51.482;7.120;2023-02-11T11:57:37;8.20;99.90
1055;DHT22;516;51.482;7.120;2023-02-11T12:58:30;8.40;99.90
1055;DHT22;516;51.482;7.120;2023-02-11T13:04:24;8.40;99.90
1055;DHT22;516;51.482;7.120;2023-02-11T13:42:02;8.60;99.90
1055;DHT22;516;51.482;7.120;2023-02-11T13:51:41;8.50;99.90
1055;DHT22;516;51.482;7.120;2023-02-11T13:57:31;8.60;99.90
1055;DHT22;516;51.482;7.120;2023-02-11T14:09:45;8.60;99.90
1055;DHT22;516;51.482;7.120;2023-02-11T14:15:39;8.60;99.90
1055;DHT22;516;51.482;7.120;2023-02-11T14:27:28;9.40;99.90
1055;DHT22;516;51.482;7.120;2023-02-11T14:46:23;9.40;99.90
1055;DHT22;516;51.482;7.120;2023-02-11T15:02:35;9.20;99.90
1055;DHT22;516;51.482;7.120;2023-02-11T15:08:23;9.40;99.90
1055;DHT22;516;51.482;7.120;2023-02-11T15:31:03;9.30;99.90
1055;DHT22;516;51.482;7.120;2023-02-11T15:36:52;9.30;99.90
1055;DHT22;516;51.482;7.120;2023-02-11T15:42:39;9.30;99.90
1055;DHT22;516;51.482;7.120;2023-02-11T15:52:24;9.20;99.90
1055;DHT22;516;51.482;7.120;2023-02-11T15:58:12;9.10;99.90
1055;DHT22;516;51.482;7.120;2023-02-11T16:04:01;9.10;99.90
1055;DHT22;516;51.482;7.120;2023-02-11T16:16:31;8.90;99.90
1055;DHT22;516;51.482;7.120;2023-02-11T16:22:28;8.80;99.90
1055;DHT22;516;51.482;7.120;2023-02-11T16:28:16;8.70;99.90
1055;DHT22;516;51.482;7.120;2023-02-11T16:34:13;8.60;99.90
1055;DHT22;516;51.482;7.120;2023-02-11T16:40:19;8.60;99.90
1055;DHT22;516;51.482;7.120;2023-02-11T16:46:09;8.60;99.90
1055;DHT22;516;51.482;7.120;2023-02-11T16:52:00;8.50;99.90
1055;DHT22;516;51.482;7.120;2023-02-11T16:57:48;8.50;99.90
1055;DHT22;516;51.482;7.120;2023-02-11T17:03:39;8.50;99.90
1055;DHT22;516;51.482;7.120;2023-02-11T17:09:27;8.40;99.90
1055;DHT22;516;51.482;7.120;2023-02-11T17:15:15;8.50;99.90
1055;DHT22;516;51.482;7.120;2023-02-11T17:21:05;8.50;99.90
1055;DHT22;516;51.482;7.120;2023-02-11T17:26:53;8.40;99.90
1055;DHT22;516;51.482;7.120;2023-02-11T17:32:41;8.50;99.90
1055;DHT22;516;51.482;7.120;2023-02-11T17:38:28;8.50;99.90
1055;DHT22;516;51.482;7.120;2023-02-11T17:44:16;8.50;99.90
1055;DHT22;516;51.482;7.120;2023-02-11T17:49:51;8.50;99.90
1055;DHT22;516;51.482;7.120;2023-02-11T17:55:39;8.50;99.90
1055;DHT22;516;51.482;7.120;2023-02-11T18:01:27;8.50;99.90
1055;DHT22;516;51.482;7.120;2023-02-11T18:07:15;8.50;99.90
1055;DHT22;516;51.482;7.120;2023-02-11T18:13:03;8.50;99.90
1055;DHT22;516;51.482;7.120;2023-02-11T18:18:51;8.50;99.90
1055;DHT22;516;51.482;7.120;2023-02-11T18:24:40;8.50;99.90
1055;DHT22;516;51.482;7.120;2023-02-11T18:30:31;8.50;99.90
1055;DHT22;516;51.482;7.120;2023-02-11T18:36:20;8.40;99.90
1055;DHT22;516;51.482;7.120;2023-02-11T18:42:09;8.40;99.90
1055;DHT22;516;51.482;7.120;2023-02-11T18:51:59;8.40;99.90
1055;DHT22;516;51.482;7.120;2023-02-11T18:57:46;8.30;99.90
1055;DHT22;516;51.482;7.120;2023-02-11T19:03:34;8.40;99.90
1055;DHT22;516;51.482;7.120;2023-02-11T19:09:22;8.30;99.90
1055;DHT22;516;51.482;7.120;2023-02-11T19:15:09;8.40;99.90
1055;DHT22;516;51.482;7.120;2023-02-11T19:20:57;8.30;99.90
1055;DHT22;516;51.482;7.120;2023-02-11T19:26:46;8.30;99.90
1055;DHT22;516;51.482;7.120;2023-02-11T19:32:34;8.30;99.90
1055;DHT22;516;51.482;7.120;2023-02-11T19:38:22;8.30;99.90
1055;DHT22;516;51.482;7.120;2023-02-11T19:44:11;8.20;99.90
1055;DHT22;516;51.482;7.120;2023-02-11T19:49:52;8.10;99.90
1055;DHT22;516;51.482;7.120;2023-02-11T19:55:40;8.10;99.90
1055;DHT22;516;51.482;7.120;2023-02-11T20:01:28;8.10;99.90
1055;DHT22;516;51.482;7.120;2023-02-11T20:07:15;8.10;99.90
1055;DHT22;516;51.482;7.120;2023-02-11T20:13:03;8.10;99.90
1055;DHT22;516;51.482;7.120;2023-02-11T20:18:33;8.10;99.90
1055;DHT22;516;51.482;7.120;2023-02-11T20:24:22;8.10;99.90
1055;DHT22;516;51.482;7.120;2023-02-11T20:30:10;8.20;99.90
1055;DHT22;516;51.482;7.120;2023-02-11T20:36:09;8.20;99.90
1055;DHT22;516;51.482;7.120;2023-02-11T20:42:26;8.30;99.90
1055;DHT22;516;51.482;7.120;2023-02-11T20:51:59;8.20;99.90
1055;DHT22;516;51.482;7.120;2023-02-11T20:57:46;8.20;99.90
1055;DHT22;516;51.482;7.120;2023-02-11T21:03:33;8.20;99.90
1055;DHT22;516;51.482;7.120;2023-02-11T21:09:23;8.20;99.90
1055;DHT22;516;51.482;7.120;2023-02-11T21:15:10;8.30;99.90
1055;DHT22;516;51.482;7.120;2023-02-11T21:20:59;8.30;99.90
1055;DHT22;516;51.482;7.120;2023-02-11T21:26:47;8.20;99.90
1055;DHT22;516;51.482;7.120;2023-02-11T21:32:35;8.20;99.90
1055;DHT22;516;51.482;7.120;2023-02-11T21:38:24;8.20;99.90
1055;DHT22;516;51.482;7.120;2023-02-11T21:44:11;8.20;99.90
1055;DHT22;516;51.482;7.120;2023-02-11T21:49:52;8.20;99.90
1055;DHT22;516;51.482;7.120;2023-02-11T21:55:40;8.20;99.90
1055;DHT22;516;51.482;7.120;2023-02-11T22:01:30;8.20;99.90
1055;DHT22;516;51.482;7.120;2023-02-11T22:07:19;8.20;99.90
1055;DHT22;516;51.482;7.120;2023-02-11T22:13:09;8.20;99.90
1055;DHT22;516;51.482;7.120;2023-02-11T22:18:56;8.20;99.90
1055;DHT22;516;51.482;7.120;2023-02-11T22:24:48;8.20;99.90
1055;DHT22;516;51.482;7.120;2023-02-11T22:30:36;8.20;99.90
1055;DHT22;516;51.482;7.120;2023-02-11T22:36:30;8.20;99.90
1055;DHT22;516;51.482;7.120;2023-02-11T22:42:18;8.20;99.90
1055;DHT22;516;51.482;7.120;2023-02-11T22:51:59;8.20;99.90
1055;DHT22;516;51.482;7.120;2023-02-11T22:57:47;8.10;99.90
1055;DHT22;516;51.482;7.120;2023-02-11T23:03:35;8.20;99.90
1055;DHT22;516;51.482;7.120;2023-02-11T23:09:22;8.20;99.90
1055;DHT22;516;51.482;7.120;2023-02-11T23:15:10;8.10;99.90
1055;DHT22;516;51.482;7.120;2023-02-11T23:21:05;8.10;99.90
1055;DHT22;516;51.482;7.120;2023-02-11T23:27:11;8.10;99.90
1055;DHT22;516;51.482;7.120;2023-02-11T23:33:00;8.10;99.90
1055;DHT22;516;51.482;7.120;2023-02-11T23:38:48;8.00;99.90
1055;DHT22;516;51.482;7.120;2023-02-11T23:44:37;8.00;99.90
1055;DHT22;516;51.482;7.120;2023-02-11T23:47:27;8.00;99.90
1055;DHT22;516;51.482;7.120;2023-02-11T23:49:53;8.10;99.90
1055;DHT22;516;51.482;7.120;2023-02-11T23:55:42;8.10;99.90
